Main page
METAR-TAF:

METAR-TAF

Airports :

Halmstad Airport

Halmstad, Sweden

latitude: 56-41N, longitude: 012-50E, elevation: 30 m

Current weather observation

The report was made 12 minutes ago, at 18:20 UTC
Wind 4 kt from the East/Southeast, varying between East and South/Southeast
Temperature 18°C
Humidity 88%
Pressure 1012 hPa
Visibility 10 km or more
rain,

METAR: ESMT 231820Z AUTO 12004KT 090V160 9999 RA SCT026/// 18/16 Q1012

Time: 20:32 (18:32 UTC)

Forecast

The report was made 7 hours and 18 minutes ago, at 11:14 UTC
Forecast valid from 23 at 12 UTC to 23 at 15 UTC
Wind 6 kt from the South/Southwest
Visibility 10 km or more
Scattered clouds at a height of 2000 ft
Temporary
from 23 at 12 UTC to 23 at 15 UTC
Visibility: 4000 m
Broken clouds at a height of 1200 ft
Scattered clouds at a height of 2000 ft, Cumulonimbus.
rain showers,

TAF: ESMT 231114Z 2312/2315 20006KT 9999 SCT020 TEMPO 2312/2315 4000 SHRA BKN012 SCT020CB

Weather observations and forecasts of more than 4000 airports (METAR and TAF reports).

The available stations are represented by yellow and red dots on the map.

Hover mouse over dot to see the name of the station.

Then click to see weather observations and forecasts.

To change the map : click on the green buttons with a black cross to zoom in, on the green button with a dash to zoom out, or on the green arrows for adjacent maps.


METAR-TAF: